Time;durP1;ratioP1;P1;durP2;ratioP2;P2;SDS_P1;SDS_P2;PMS_P1;PMS_P2;Temp;Humidity;BMP_temperature;BMP_pressure;BME280_temperature;BME280_humidity;BME280_pressure;Samples;Min_cycle;Max_cycle;Signal;HPM_P1;HPM_P2
2022/02/25 00:02:17;;;;;;;17.33;2.72;;;;;;;1.50;100.00;100742.50;4979114;28;20041;-77
2022/02/25 00:04:43;;;;;;;15.52;3.03;;;;;;;1.53;100.00;100744.09;4972961;28;20910;-76
2022/02/25 00:07:09;;;;;;;14.25;3.50;;;;;;;1.46;100.00;100748.75;4988185;28;20068;-76
2022/02/25 00:09:35;;;;;;;9.73;2.63;;;;;;;1.52;100.00;100752.75;4995296;28;20040;-76
2022/02/25 00:12:01;;;;;;;18.70;3.15;;;;;;;1.66;100.00;100763.13;4993044;28;20419;-75
2022/02/25 00:14:27;;;;;;;10.20;2.90;;;;;;;1.66;100.00;100764.91;4980911;28;20092;-75
2022/02/25 00:16:56;;;;;;;15.68;4.22;;;;;;;1.64;100.00;100764.13;4981877;28;20053;-76
2022/02/25 00:19:21;;;;;;;15.45;3.50;;;;;;;1.70;100.00;100769.78;5003776;28;20107;-76
2022/02/25 00:21:47;;;;;;;18.33;3.90;;;;;;;1.73;100.00;100763.59;5001683;28;20752;-77
2022/02/25 00:24:13;;;;;;;16.30;3.72;;;;;;;1.72;100.00;100767.94;4987539;28;20037;-77
2022/02/25 00:26:38;;;;;;;25.30;3.88;;;;;;;1.78;100.00;100776.28;5016381;28;20686;-75
2022/02/25 00:29:05;;;;;;;16.27;3.72;;;;;;;1.79;100.00;100777.94;5004208;28;20041;-75
2022/02/25 00:31:32;;;;;;;20.33;3.80;;;;;;;1.84;100.00;100784.50;4998638;28;20068;-75
2022/02/25 00:33:58;;;;;;;17.25;3.40;;;;;;;1.83;100.00;100787.16;4988545;28;20145;-76
2022/02/25 00:36:24;;;;;;;19.52;3.63;;;;;;;1.82;100.00;100794.09;4996192;28;20113;-77
2022/02/25 00:38:50;;;;;;;16.13;3.53;;;;;;;1.83;100.00;100794.94;4991923;28;20038;-77
2022/02/25 00:41:16;;;;;;;18.33;3.63;;;;;;;1.80;100.00;100800.31;4979748;28;20080;-76
2022/02/25 00:43:44;;;;;;;14.43;3.40;;;;;;;1.80;100.00;100808.88;4985472;28;20073;-76
2022/02/25 00:46:16;;;;;;;12.25;3.70;;;;;;;1.74;100.00;100804.91;4991046;28;20042;-76
2022/02/25 00:48:44;;;;;;;26.90;3.72;;;;;;;1.68;100.00;100805.25;5004635;28;20142;-76
2022/02/25 00:51:13;;;;;;;16.70;3.28;;;;;;;1.80;100.00;100837.34;5003707;28;20034;-76
2022/02/25 00:53:38;;;;;;;20.23;3.50;;;;;;;1.77;100.00;100834.91;4999388;28;20041;-76
2022/02/25 00:56:04;;;;;;;14.85;3.28;;;;;;;1.72;100.00;100834.38;5004374;28;20050;-77
2022/02/25 00:58:31;;;;;;;17.88;4.03;;;;;;;1.65;100.00;100833.03;4996816;28;20165;-76
2022/02/25 01:00:57;;;;;;;16.10;3.05;;;;;;;1.66;100.00;100835.53;4993032;28;20053;-76
2022/02/25 01:03:25;;;;;;;21.80;3.13;;;;;;;1.70;100.00;100843.97;4973300;28;20065;-77
2022/02/25 01:05:53;;;;;;;18.77;3.08;;;;;;;1.62;100.00;100840.97;5001940;28;20042;-75
2022/02/25 01:08:19;;;;;;;18.85;2.85;;;;;;;1.61;100.00;100853.06;5004957;28;20072;-76
2022/02/25 01:10:44;;;;;;;17.67;3.00;;;;;;;1.55;100.00;100848.25;4989542;28;20101;-76
2022/02/25 01:13:10;;;;;;;17.75;2.80;;;;;;;1.51;100.00;100857.91;4989193;28;20192;-76
2022/02/25 01:15:36;;;;;;;18.98;3.22;;;;;;;1.48;100.00;100862.41;4983471;28;20453;-76
2022/02/25 01:18:02;;;;;;;14.85;3.17;;;;;;;1.44;100.00;100858.34;4988032;28;20068;-75
2022/02/25 01:20:27;;;;;;;16.25;3.47;;;;;;;1.50;100.00;100869.16;4985313;28;20583;-77
2022/02/25 01:22:53;;;;;;;19.88;3.15;;;;;;;1.54;100.00;100870.69;4987490;28;20527;-76
2022/02/25 01:25:19;;;;;;;22.30;2.95;;;;;;;1.53;100.00;100874.19;4999011;28;20034;-75
2022/02/25 01:27:45;;;;;;;21.83;3.13;;;;;;;1.55;100.00;100871.50;4982408;28;20030;-77
2022/02/25 01:30:11;;;;;;;15.98;3.13;;;;;;;1.53;100.00;100869.00;4990619;28;20154;-75
2022/02/25 01:32:38;;;;;;;16.08;2.63;;;;;;;1.54;100.00;100870.69;4995470;28;20038;-77
2022/02/25 01:35:04;;;;;;;22.38;3.00;;;;;;;1.50;100.00;100874.34;4979587;28;20038;-76
2022/02/25 01:37:29;;;;;;;11.45;2.53;;;;;;;1.48;100.00;100868.41;4989030;28;20391;-75
2022/02/25 01:39:58;;;;;;;18.85;3.42;;;;;;;1.57;100.00;100877.44;4983973;28;20508;-76
2022/02/25 01:42:24;;;;;;;12.68;2.90;;;;;;;1.55;100.00;100880.09;4988587;28;20048;-75
2022/02/25 01:44:50;;;;;;;17.65;2.60;;;;;;;1.60;100.00;100881.59;4989208;28;20132;-75
2022/02/25 01:47:16;;;;;;;15.05;2.67;;;;;;;1.55;100.00;100871.50;4970715;28;20038;-78
2022/02/25 01:49:43;;;;;;;22.10;3.05;;;;;;;1.50;100.00;100869.16;5007711;28;20038;-77
2022/02/25 01:52:14;;;;;;;19.50;3.22;;;;;;;1.51;100.00;100890.69;4981177;28;20038;-76
2022/02/25 01:54:45;;;;;;;11.70;2.60;;;;;;;1.47;100.00;100889.19;4998223;28;20031;-75
2022/02/25 01:57:14;;;;;;;16.25;3.20;;;;;;;1.48;100.00;100886.50;5006803;28;20037;-75
2022/02/25 01:59:41;;;;;;;15.45;2.92;;;;;;;1.49;100.00;100874.44;5003508;28;20064;-76
2022/02/25 02:02:07;;;;;;;19.58;2.97;;;;;;;1.43;100.00;100873.03;4996219;28;20037;-78
2022/02/25 02:04:34;;;;;;;20.40;2.70;;;;;;;1.48;100.00;100885.69;4991265;28;20042;-77
2022/02/25 02:07:00;;;;;;;12.35;2.58;;;;;;;1.56;100.00;100891.25;4985129;28;20133;-76
2022/02/25 02:09:25;;;;;;;19.52;3.03;;;;;;;1.40;100.00;100883.53;5011919;28;20153;-74
2022/02/25 02:11:53;;;;;;;19.33;2.92;;;;;;;1.60;100.00;100899.69;5002956;28;20088;-75
2022/02/25 02:14:21;;;;;;;16.85;3.03;;;;;;;1.57;100.00;100900.69;4992505;28;20066;-78
2022/02/25 02:16:49;;;;;;;16.65;3.20;;;;;;;1.68;100.00;100897.53;5010163;28;20058;-77
2022/02/25 02:19:16;;;;;;;20.83;3.60;;;;;;;1.72;100.00;100899.00;4975790;28;20050;-76
2022/02/25 02:21:47;;;;;;;21.38;4.25;;;;;;;1.77;100.00;100902.16;4983519;28;20052;-78
2022/02/25 02:24:15;;;;;;;17.92;2.63;;;;;;;1.84;100.00;100894.91;4995489;28;20036;-76
2022/02/25 02:26:41;;;;;;;16.00;2.75;;;;;;;1.79;100.00;100887.41;5012247;28;20042;-75
2022/02/25 02:29:08;;;;;;;15.50;2.70;;;;;;;1.86;100.00;100893.88;5028216;28;20038;-75
2022/02/25 02:31:35;;;;;;;16.45;3.20;;;;;;;1.78;100.00;100875.38;4995709;28;20124;-76
2022/02/25 02:34:02;;;;;;;20.70;3.78;;;;;;;1.78;100.00;100880.56;5000501;28;20052;-76
2022/02/25 02:36:28;;;;;;;21.00;2.90;;;;;;;1.84;100.00;100875.03;4997055;28;20052;-76
2022/02/25 02:38:56;;;;;;;8.40;2.53;;;;;;;1.90;100.00;100886.78;4994016;28;20399;-76
2022/02/25 02:41:22;;;;;;;17.52;3.22;;;;;;;1.99;100.00;100888.84;5004526;28;20088;-76
2022/02/25 02:43:47;;;;;;;17.70;2.70;;;;;;;1.95;100.00;100888.19;4995405;28;20034;-76
2022/02/25 02:46:14;;;;;;;14.60;2.80;;;;;;;1.95;100.00;100895.13;4995287;28;20076;-76
2022/02/25 02:48:40;;;;;;;18.70;3.00;;;;;;;1.98;100.00;100899.28;4994172;28;20034;-78
2022/02/25 02:51:08;;;;;;;13.60;2.65;;;;;;;2.02;100.00;100893.84;4993839;28;20057;-76
2022/02/25 02:53:34;;;;;;;13.80;2.47;;;;;;;2.04;100.00;100911.91;5003273;28;20049;-76
2022/02/25 02:56:01;;;;;;;15.27;2.95;;;;;;;2.02;100.00;100908.56;4994185;28;20034;-76
2022/02/25 02:58:26;;;;;;;13.25;2.65;;;;;;;1.97;100.00;100911.41;5000924;28;20420;-76
2022/02/25 03:00:53;;;;;;;12.07;2.83;;;;;;;2.05;100.00;100905.78;4990238;28;20048;-78
2022/02/25 03:03:19;;;;;;;17.70;2.80;;;;;;;2.07;100.00;100919.47;4976135;28;20136;-77
2022/02/25 03:05:46;;;;;;;17.85;2.70;;;;;;;2.11;100.00;100921.81;4991541;28;20045;-76
2022/02/25 03:08:13;;;;;;;13.73;2.35;;;;;;;2.12;100.00;100920.03;4977078;28;20148;-76
2022/02/25 03:10:41;;;;;;;17.52;3.00;;;;;;;2.07;100.00;100907.38;4988281;28;20031;-75
2022/02/25 03:13:12;;;;;;;13.90;2.67;;;;;;;2.12;100.00;100922.63;4999345;28;20488;-77
2022/02/25 03:15:39;;;;;;;13.50;2.42;;;;;;;2.09;100.00;100921.06;5004051;28;20446;-78
2022/02/25 03:18:05;;;;;;;18.92;3.05;;;;;;;1.99;100.00;100919.91;5017491;28;20474;-75
2022/02/25 03:20:30;;;;;;;14.00;2.55;;;;;;;1.99;100.00;100919.91;4996598;28;20077;-77
2022/02/25 03:22:56;;;;;;;15.68;2.80;;;;;;;1.97;100.00;100916.56;4992628;28;20038;-75
2022/02/25 03:25:22;;;;;;;18.48;2.70;;;;;;;1.97;100.00;100926.91;5003478;28;20092;-77
2022/02/25 03:27:49;;;;;;;20.23;2.95;;;;;;;2.00;100.00;100929.34;4982616;28;20050;-76
2022/02/25 03:30:16;;;;;;;14.73;2.50;;;;;;;2.00;100.00;100931.06;4995383;28;20037;-76
2022/02/25 03:32:42;;;;;;;15.18;3.17;;;;;;;2.00;100.00;100937.09;4977332;28;20487;-76
2022/02/25 03:35:10;;;;;;;17.58;3.40;;;;;;;1.92;100.00;100923.75;5006606;28;20720;-77
2022/02/25 03:37:36;;;;;;;13.00;2.78;;;;;;;1.90;100.00;100920.41;4961434;28;20109;-77
2022/02/25 03:40:03;;;;;;;21.95;2.90;;;;;;;1.88;100.00;100938.59;5006496;28;20209;-78
2022/02/25 03:42:29;;;;;;;15.80;3.00;;;;;;;1.82;100.00;100922.59;4982169;28;20038;-78
2022/02/25 03:44:55;;;;;;;19.80;3.03;;;;;;;1.85;100.00;100938.78;4993744;28;20109;-77
2022/02/25 03:47:21;;;;;;;14.65;2.85;;;;;;;1.91;100.00;100943.63;4974502;28;20216;-76
2022/02/25 03:49:47;;;;;;;18.38;3.38;;;;;;;1.86;100.00;100942.19;4989142;28;20042;-76
2022/02/25 03:52:12;;;;;;;17.48;3.60;;;;;;;1.91;100.00;100946.19;4989945;28;20045;-78
2022/02/25 03:54:38;;;;;;;14.07;3.10;;;;;;;1.85;100.00;100940.56;5003210;28;20112;-77
2022/02/25 03:57:04;;;;;;;17.60;3.30;;;;;;;1.95;100.00;100954.63;4989524;28;20558;-77
2022/02/25 03:59:29;;;;;;;12.65;2.80;;;;;;;1.92;100.00;100942.72;4997281;28;20038;-77
2022/02/25 04:01:55;;;;;;;18.92;3.22;;;;;;;1.87;100.00;100947.28;4992681;28;20041;-79
2022/02/25 04:04:23;;;;;;;18.25;3.13;;;;;;;1.86;100.00;100937.03;4990721;28;20038;-77
2022/02/25 04:06:50;;;;;;;17.15;2.63;;;;;;;1.89;100.00;100942.88;4982386;28;20550;-77
2022/02/25 04:09:18;;;;;;;17.35;2.80;;;;;;;1.89;100.00;100954.97;4989177;28;20041;-76
2022/02/25 04:11:52;;;;;;;15.52;3.13;;;;;;;1.97;100.00;100960.56;4999986;28;20072;-76
2022/02/25 04:14:19;;;;;;;18.00;3.40;;;;;;;1.94;100.00;100953.81;4986793;28;20033;-76
2022/02/25 04:16:45;;;;;;;17.30;2.92;;;;;;;2.02;100.00;100957.72;5002176;28;20116;-76
2022/02/25 04:19:11;;;;;;;12.90;2.50;;;;;;;1.97;100.00;100960.56;5005053;28;20045;-77
2022/02/25 04:21:37;;;;;;;17.98;3.10;;;;;;;1.91;100.00;100956.56;4961063;28;20030;-74
2022/02/25 04:24:03;;;;;;;13.13;2.60;;;;;;;1.99;100.00;100963.06;5004614;28;20040;-78
2022/02/25 04:26:28;;;;;;;19.70;3.53;;;;;;;2.01;100.00;100963.81;4974809;28;20038;-74
2022/02/25 04:28:54;;;;;;;17.25;3.35;;;;;;;2.10;100.00;100930.47;4983968;28;20038;-77
2022/02/25 04:31:20;;;;;;;18.25;3.03;;;;;;;2.13;100.00;100947.59;5008891;28;20041;-75
2022/02/25 04:33:46;;;;;;;15.18;2.90;;;;;;;2.14;100.00;100963.00;4999733;28;20042;-77
2022/02/25 04:36:11;;;;;;;13.40;2.28;;;;;;;2.07;100.00;100938.44;4993094;28;20030;-77
2022/02/25 04:38:37;;;;;;;9.57;1.98;;;;;;;2.11;100.00;100946.81;4975661;28;20088;-77
2022/02/25 04:41:03;;;;;;;15.07;2.58;;;;;;;2.22;100.00;100967.75;4992891;28;20058;-75
2022/02/25 04:43:29;;;;;;;11.35;2.15;;;;;;;2.23;100.00;100972.03;4969104;28;20042;-77
2022/02/25 04:45:56;;;;;;;14.77;3.20;;;;;;;2.27;100.00;100973.50;4996650;28;20504;-77
2022/02/25 04:48:23;;;;;;;15.68;2.65;;;;;;;2.33;100.00;100961.97;4975289;28;20038;-76
2022/02/25 04:50:49;;;;;;;13.65;2.30;;;;;;;2.45;100.00;100963.00;4976991;28;20030;-76
2022/02/25 04:53:15;;;;;;;15.73;2.33;;;;;;;2.48;100.00;100973.19;4988294;28;20033;-77
2022/02/25 04:55:41;;;;;;;14.23;2.47;;;;;;;2.31;100.00;100963.81;4988271;28;20036;-76
2022/02/25 04:58:07;;;;;;;14.38;2.38;;;;;;;2.32;100.00;100966.31;5005462;28;20106;-77
2022/02/25 05:00:35;;;;;;;17.70;2.88;;;;;;;2.34;100.00;100981.78;4988247;28;20037;-75
2022/02/25 05:03:00;;;;;;;16.20;2.60;;;;;;;2.21;100.00;100973.88;5005179;28;20100;-76
2022/02/25 05:05:26;;;;;;;14.18;2.72;;;;;;;2.16;100.00;100975.03;5003039;28;20034;-75
2022/02/25 05:07:52;;;;;;;15.88;3.20;;;;;;;2.23;100.00;100984.13;5003825;28;20558;-76
2022/02/25 05:10:17;;;;;;;17.67;2.83;;;;;;;2.14;100.00;100981.13;4973205;28;20022;-77
2022/02/25 05:12:43;;;;;;;15.30;2.25;;;;;;;2.11;100.00;100985.63;4995407;28;20500;-77
2022/02/25 05:20:58;;;;;;;12.55;2.45;;;;;;;2.17;100.00;100985.31;5016210;28;20389;-77
2022/02/25 05:23:27;;;;;;;12.95;2.53;;;;;;;2.14;100.00;101001.00;4983609;28;20044;-76
2022/02/25 05:25:54;;;;;;;15.25;2.30;;;;;;;2.07;100.00;100994.50;4990550;28;20045;-77
2022/02/25 05:28:19;;;;;;;10.98;2.10;;;;;;;2.11;100.00;100999.44;4977026;28;20029;-76
2022/02/25 05:30:45;;;;;;;12.55;2.50;;;;;;;2.03;100.00;100993.00;4990355;28;20629;-76
2022/02/25 05:33:11;;;;;;;12.52;1.98;;;;;;;2.08;100.00;101007.34;4991735;28;20040;-76
2022/02/25 05:35:38;;;;;;;10.10;2.42;;;;;;;2.09;100.00;101005.59;4989564;28;20042;-75
2022/02/25 05:38:05;;;;;;;17.10;2.50;;;;;;;2.14;100.00;101009.59;4990863;28;20038;-77
2022/02/25 05:40:30;;;;;;;12.57;2.58;;;;;;;2.15;100.00;101002.69;5009796;28;20053;-78
2022/02/25 05:42:56;;;;;;;16.90;2.90;;;;;;;2.20;100.00;101005.00;5009568;28;20041;-76
2022/02/25 05:45:22;;;;;;;13.63;2.58;;;;;;;2.25;100.00;101018.53;4986627;28;20879;-76
2022/02/25 05:47:48;;;;;;;16.65;2.85;;;;;;;2.27;100.00;101011.50;4994283;28;20049;-74
2022/02/25 05:50:19;;;;;;;12.55;2.10;;;;;;;2.27;100.00;101021.88;5007298;28;20427;-77
2022/02/25 05:52:45;;;;;;;23.45;2.38;;;;;;;2.27;100.00;101017.50;5006616;28;20129;-78
2022/02/25 05:55:11;;;;;;;12.23;2.60;;;;;;;2.30;100.00;101022.53;4998320;28;20704;-76
2022/02/25 05:57:38;;;;;;;10.82;2.40;;;;;;;2.32;100.00;101023.28;4985207;28;20588;-75
2022/02/25 06:00:07;;;;;;;14.30;2.58;;;;;;;2.31;100.00;101013.81;4977166;28;20039;-76
2022/02/25 06:02:38;;;;;;;11.25;2.08;;;;;;;2.34;100.00;101028.38;4987630;28;20035;-76
2022/02/25 06:05:05;;;;;;;18.55;2.90;;;;;;;2.40;100.00;101019.44;5010852;28;20049;-77
2022/02/25 06:07:31;;;;;;;13.10;2.53;;;;;;;2.46;100.00;101029.44;4977977;28;20394;-77
2022/02/25 06:09:56;;;;;;;17.42;2.88;;;;;;;2.45;100.00;101025.16;4992807;28;20042;-77
2022/02/25 06:12:22;;;;;;;15.77;2.95;;;;;;;2.48;100.00;101015.47;4993796;28;20955;-76
2022/02/25 06:14:48;;;;;;;14.93;2.78;;;;;;;2.56;100.00;101027.13;4992025;28;20069;-75
2022/02/25 06:17:14;;;;;;;14.15;2.30;;;;;;;2.57;100.00;101028.81;4977815;28;20036;-77
2022/02/25 06:19:39;;;;;;;16.23;2.53;;;;;;;2.53;100.00;101028.16;5001961;28;20462;-77
2022/02/25 06:22:06;;;;;;;18.67;3.35;;;;;;;2.51;100.00;101022.25;4984760;28;20045;-77
2022/02/25 06:24:31;;;;;;;17.33;2.97;;;;;;;2.51;100.00;101032.59;4989179;28;20042;-75
2022/02/25 06:26:57;;;;;;;11.40;2.78;;;;;;;2.42;100.00;101026.19;4990278;28;20041;-75
2022/02/25 06:29:23;;;;;;;15.38;2.67;;;;;;;2.44;100.00;101031.28;5008391;28;20049;-76
2022/02/25 06:31:49;;;;;;;22.63;3.28;;;;;;;2.39;100.00;101022.91;5008842;28;20033;-74
2022/02/25 06:34:14;;;;;;;16.55;3.30;;;;;;;2.37;100.00;101029.94;4990222;28;20148;-76
2022/02/25 06:36:41;;;;;;;16.95;2.70;;;;;;;2.39;100.00;101028.09;5000522;28;20026;-76
2022/02/25 06:39:08;;;;;;;18.00;2.90;;;;;;;2.37;100.00;101033.34;4990726;28;20487;-75
2022/02/25 06:41:34;;;;;;;20.52;2.83;;;;;;;2.38;100.00;101032.44;5002403;28;20484;-76
2022/02/25 06:43:59;;;;;;;14.73;3.00;;;;;;;2.39;100.00;101020.34;5008394;28;20080;-77
2022/02/25 06:46:25;;;;;;;20.40;3.03;;;;;;;2.34;100.00;101033.56;5007389;28;20029;-77
2022/02/25 06:48:51;;;;;;;21.73;3.47;;;;;;;2.42;100.00;101017.56;4985045;28;20507;-78
2022/02/25 06:51:16;;;;;;;24.13;3.67;;;;;;;2.41;100.00;101021.06;4984816;28;20518;-77
2022/02/25 06:53:42;;;;;;;18.27;3.05;;;;;;;2.45;100.00;101022.56;4980972;28;20054;-77
2022/02/25 06:56:08;;;;;;;14.00;2.83;;;;;;;2.51;100.00;101015.28;4984981;28;20044;-76
2022/02/25 06:58:34;;;;;;;19.20;3.13;;;;;;;2.55;100.00;101026.31;5001561;28;20187;-77
2022/02/25 07:01:05;;;;;;;21.73;3.58;;;;;;;2.60;100.00;101031.22;5007415;28;20033;-76
2022/02/25 07:03:32;;;;;;;20.02;3.28;;;;;;;2.69;100.00;101034.13;4997983;28;20100;-76
2022/02/25 07:05:58;;;;;;;23.75;3.28;;;;;;;2.69;100.00;101036.72;5013989;28;20407;-77
2022/02/25 07:08:23;;;;;;;19.75;3.35;;;;;;;2.63;100.00;101024.09;5009834;28;20030;-75
2022/02/25 07:10:50;;;;;;;22.25;3.78;;;;;;;2.67;100.00;101045.50;4991013;28;20483;-78
2022/02/25 07:13:17;;;;;;;18.88;3.03;;;;;;;2.72;100.00;101052.06;5007019;28;20030;-76
2022/02/25 07:15:43;;;;;;;17.63;3.15;;;;;;;2.69;100.00;101062.63;5003882;28;20042;-76
2022/02/25 07:18:09;;;;;;;13.10;2.88;;;;;;;2.69;100.00;101056.59;4992475;28;20048;-76
2022/02/25 07:20:36;;;;;;;21.45;3.05;;;;;;;2.73;100.00;101058.09;5008379;28;20099;-77
2022/02/25 07:23:03;;;;;;;20.50;2.97;;;;;;;2.73;100.00;101058.94;5006276;28;20038;-76
2022/02/25 07:25:29;;;;;;;23.15;3.67;;;;;;;2.69;100.00;101062.63;4992090;28;20040;-77
2022/02/25 07:27:58;;;;;;;25.95;3.90;;;;;;;2.70;100.00;101072.06;4996394;28;20132;-76
2022/02/25 07:30:26;;;;;;;16.02;2.78;;;;;;;2.63;100.00;101059.53;4992441;28;20030;-75
2022/02/25 07:32:52;;;;;;;19.42;3.05;;;;;;;2.64;100.00;101064.63;5003204;28;20042;-77
2022/02/25 07:35:18;;;;;;;18.58;2.90;;;;;;;2.64;100.00;101061.22;4978743;28;20391;-75
2022/02/25 07:37:43;;;;;;;17.00;3.00;;;;;;;2.71;100.00;101073.72;4982225;28;20049;-77
2022/02/25 07:40:12;;;;;;;19.70;3.15;;;;;;;2.72;100.00;101051.25;4989165;28;20441;-76
2022/02/25 07:42:38;;;;;;;21.30;3.20;;;;;;;2.80;100.00;101068.94;5007330;28;20058;-75
2022/02/25 07:45:04;;;;;;;17.10;3.10;;;;;;;2.81;100.00;101065.44;4984177;28;20041;-77
2022/02/25 07:47:30;;;;;;;17.10;3.40;;;;;;;2.78;100.00;101057.84;4991825;28;20045;-76
2022/02/25 07:49:56;;;;;;;20.13;3.90;;;;;;;2.75;100.00;101055.41;5009459;28;20093;-76
2022/02/25 07:52:22;;;;;;;19.60;3.05;;;;;;;2.79;100.00;101052.56;4974908;28;20121;-77
2022/02/25 07:54:49;;;;;;;15.82;3.20;;;;;;;2.92;100.00;101061.28;5003125;28;20042;-75
2022/02/25 07:57:15;;;;;;;15.90;4.18;;;;;;;3.01;100.00;101062.50;4973407;28;20034;-77
2022/02/25 07:59:41;;;;;;;19.17;3.72;;;;;;;3.17;100.00;101065.03;4970203;28;20376;-76
2022/02/25 08:02:07;;;;;;;13.77;2.90;;;;;;;3.30;100.00;101065.97;4988729;28;20500;-75
2022/02/25 08:04:33;;;;;;;14.48;3.00;;;;;;;3.45;100.00;101069.41;4993745;28;20053;-76
2022/02/25 08:06:59;;;;;;;18.92;3.78;;;;;;;3.34;100.00;101058.03;5023489;28;20048;-77
2022/02/25 08:09:25;;;;;;;16.83;3.65;;;;;;;3.29;100.00;101072.06;4991373;28;20030;-76
2022/02/25 08:11:50;;;;;;;12.98;3.08;;;;;;;3.25;100.00;101077.53;4988036;28;20042;-75
2022/02/25 08:14:16;;;;;;;12.80;3.08;;;;;;;3.18;100.00;101079.66;5005531;28;20117;-75
2022/02/25 08:16:42;;;;;;;12.73;3.10;;;;;;;3.09;100.00;101080.22;4998013;28;20044;-75
2022/02/25 08:19:08;;;;;;;17.80;3.88;;;;;;;3.00;100.00;101081.56;5022889;28;20038;-73
2022/02/25 08:21:37;;;;;;;18.65;3.80;;;;;;;2.96;100.00;101081.81;4981763;28;20125;-76
2022/02/25 08:24:03;;;;;;;16.75;4.18;;;;;;;2.91;100.00;101080.34;4992912;28;20053;-75
2022/02/25 08:26:29;;;;;;;22.35;3.83;;;;;;;2.87;100.00;101089.22;4978766;28;20124;-74
2022/02/25 08:28:55;;;;;;;20.02;3.90;;;;;;;2.94;100.00;101094.91;4989909;28;20642;-76
2022/02/25 08:31:22;;;;;;;18.33;3.60;;;;;;;2.97;100.00;101089.53;4990445;28;20030;-79
2022/02/25 08:33:48;;;;;;;15.55;4.35;;;;;;;2.98;100.00;101098.16;5015837;28;20399;-75
2022/02/25 08:36:13;;;;;;;17.58;3.97;;;;;;;2.98;100.00;101093.78;4993329;28;20042;-76
2022/02/25 08:38:39;;;;;;;15.75;4.07;;;;;;;3.03;100.00;101098.69;5009434;28;20064;-75
2022/02/25 08:41:05;;;;;;;15.07;3.92;;;;;;;3.05;100.00;101096.84;5010191;28;20034;-74
2022/02/25 08:43:31;;;;;;;16.02;4.05;;;;;;;2.98;100.00;101096.38;4970715;28;20049;-76
2022/02/25 08:45:57;;;;;;;18.90;4.60;;;;;;;3.04;100.00;101092.59;4986046;28;20038;-75
2022/02/25 08:48:23;;;;;;;22.73;4.60;;;;;;;3.00;100.00;101086.75;4992132;28;20459;-76
2022/02/25 08:50:50;;;;;;;19.10;4.78;;;;;;;3.06;100.00;101107.13;5025353;28;20037;-75
2022/02/25 08:53:16;;;;;;;19.00;4.88;;;;;;;2.89;100.00;101089.97;4994596;28;20052;-75
2022/02/25 08:55:42;;;;;;;19.83;4.50;;;;;;;2.81;100.00;101089.59;4991485;28;20450;-75
2022/02/25 08:58:08;;;;;;;18.55;5.15;;;;;;;2.91;100.00;101093.31;5010543;28;20041;-76
2022/02/25 09:00:34;;;;;;;16.45;5.15;;;;;;;3.05;100.00;101089.94;5009862;28;20665;-76
2022/02/25 09:03:00;;;;;;;25.15;6.05;;;;;;;3.26;100.00;101095.59;4995949;28;20041;-77
2022/02/25 09:05:26;;;;;;;23.73;5.28;;;;;;;3.38;100.00;101095.81;4990839;28;20117;-77
2022/02/25 09:07:54;;;;;;;13.75;4.18;;;;;;;3.43;100.00;101104.16;4971477;28;20045;-76
2022/02/25 09:10:21;;;;;;;16.60;4.78;;;;;;;3.34;100.00;101104.69;4979492;28;20495;-77
2022/02/25 09:12:48;;;;;;;15.55;3.95;;;;;;;3.05;100.00;101107.22;4988096;28;20045;-77
2022/02/25 09:15:22;;;;;;;21.10;4.68;;;;;;;3.04;100.00;101108.16;4993768;28;20025;-78
2022/02/25 09:17:57;;;;;;;21.42;5.20;;;;;;;3.04;100.00;101106.38;5003841;28;20037;-77
2022/02/25 09:20:24;;;;;;;14.73;4.30;;;;;;;3.03;100.00;101120.28;5005268;28;20076;-76
2022/02/25 09:22:50;;;;;;;14.45;4.78;;;;;;;2.97;100.00;101117.19;4988731;28;20052;-76
2022/02/25 09:25:16;;;;;;;17.05;4.75;;;;;;;2.93;100.00;101129.50;4977207;28;20034;-77
2022/02/25 09:27:42;;;;;;;14.55;4.15;;;;;;;2.92;100.00;101125.25;5005238;28;20034;-76
2022/02/25 09:30:09;;;;;;;17.45;4.78;;;;;;;2.92;100.00;101110.53;4985685;28;20060;-75
2022/02/25 09:32:36;;;;;;;13.63;4.05;;;;;;;3.07;100.00;101126.94;4987166;28;20549;-76
2022/02/25 09:35:02;;;;;;;17.10;4.22;;;;;;;3.02;100.00;101115.19;5023455;28;20041;-75
2022/02/25 09:37:29;;;;;;;11.80;3.72;;;;;;;3.04;100.00;101111.56;5003155;28;20389;-74
2022/02/25 09:39:55;;;;;;;13.63;4.18;;;;;;;3.17;100.00;101113.47;4976968;28;20038;-76
2022/02/25 09:42:22;;;;;;;14.52;4.00;;;;;;;3.52;100.00;101121.72;4986542;28;20038;-74
2022/02/25 09:44:48;;;;;;;12.98;3.83;;;;;;;3.66;100.00;101131.31;4991383;28;20040;-76
2022/02/25 09:47:17;;;;;;;13.15;3.97;;;;;;;3.62;100.00;101135.00;4991829;28;20479;-77
2022/02/25 09:49:42;;;;;;;10.52;3.40;;;;;;;3.65;100.00;101150.38;5005793;28;20040;-77
2022/02/25 09:52:14;;;;;;;11.02;4.00;;;;;;;3.61;100.00;101159.25;5008121;28;20042;-77
2022/02/25 09:54:40;;;;;;;18.02;4.13;;;;;;;3.63;100.00;101158.25;4987127;28;20046;-77
2022/02/25 09:57:06;;;;;;;14.25;4.00;;;;;;;3.69;100.00;101168.28;5008276;28;20041;-76
2022/02/25 09:59:33;;;;;;;15.13;4.25;;;;;;;3.60;100.00;101170.56;4986513;28;20061;-76
2022/02/25 10:02:06;;;;;;;12.90;4.53;;;;;;;3.41;100.00;101163.88;5017021;28;20391;-76
2022/02/25 10:04:33;;;;;;;15.98;4.50;;;;;;;3.44;100.00;101160.25;4985682;28;20041;-76
2022/02/25 10:06:59;;;;;;;16.73;4.82;;;;;;;3.53;100.00;101157.13;5001113;28;20042;-76
2022/02/25 10:09:38;;;;;;;16.35;3.85;;;;;;;3.59;100.00;101156.75;5007235;28;20305;-75
2022/02/25 10:12:09;;;;;;;14.70;4.13;;;;;;;3.77;100.00;101157.44;4979270;28;20077;-75
2022/02/25 10:14:37;;;;;;;18.50;4.00;;;;;;;3.94;100.00;101158.16;4985858;28;20034;-76
2022/02/25 10:17:18;;;;;;;16.52;4.30;;;;;;;3.90;100.00;101167.91;5006551;28;20085;-76
2022/02/25 10:19:55;;;;;;;16.60;3.80;;;;;;;3.89;100.00;101161.03;5003914;28;20134;-76
2022/02/25 10:22:36;;;;;;;23.17;4.03;;;;;;;4.09;100.00;101162.44;4995571;28;20112;-77
2022/02/25 10:25:10;;;;;;;14.32;3.95;;;;;;;4.06;100.00;101171.22;4989869;28;20415;-72
2022/02/25 10:27:45;;;;;;;12.00;3.65;;;;;;;3.93;100.00;101170.31;4959139;28;20057;-73
2022/02/25 10:30:16;;;;;;;16.60;4.15;;;;;;;3.62;100.00;101173.91;4966609;28;20133;-76
2022/02/25 10:32:50;;;;;;;15.55;4.32;;;;;;;3.40;100.00;101187.31;5002703;28;20038;-78
2022/02/25 10:35:40;;;;;;;13.65;4.50;;;;;;;3.17;100.00;101192.06;4974059;28;20046;-76
2022/02/25 10:38:11;;;;;;;24.77;5.03;;;;;;;3.03;100.00;101189.41;4999802;28;20108;-76
2022/02/25 10:40:44;;;;;;;17.20;5.38;;;;;;;2.85;100.00;101186.94;4988718;28;20069;-74
2022/02/25 10:43:24;;;;;;;17.88;5.50;;;;;;;2.75;100.00;101175.44;4973676;28;20042;-76
2022/02/25 10:45:57;;;;;;;19.38;6.10;;;;;;;2.77;100.00;101181.34;4989002;28;20033;-75
2022/02/25 10:48:44;;;;;;;16.55;4.97;;;;;;;2.67;100.00;101181.00;4996666;28;20082;-75
2022/02/25 10:51:21;;;;;;;19.90;6.03;;;;;;;2.62;100.00;101185.63;5000898;28;20046;-76
2022/02/25 10:53:49;;;;;;;25.83;8.13;;;;;;;2.64;100.00;101177.78;5017135;28;20033;-75
2022/02/25 10:56:17;;;;;;;17.23;5.70;;;;;;;2.69;100.00;101181.78;4984225;28;20065;-77
2022/02/25 10:58:50;;;;;;;26.05;6.68;;;;;;;2.91;100.00;101185.75;4988609;28;20125;-76
2022/02/25 11:01:20;;;;;;;23.23;7.35;;;;;;;3.14;100.00;101187.03;4987910;28;20033;-76
2022/02/25 11:04:04;;;;;;;18.83;6.43;;;;;;;3.11;100.00;101184.63;4960803;28;20104;-76
2022/02/25 11:06:31;;;;;;;21.95;6.75;;;;;;;3.09;100.00;101187.31;4967012;28;20040;-75
2022/02/25 11:08:58;;;;;;;18.85;6.35;;;;;;;3.10;100.00;101199.34;5015324;28;20142;-76
2022/02/25 11:11:24;;;;;;;14.50;5.32;;;;;;;3.10;100.00;101191.56;5004144;28;20052;-75
2022/02/25 11:13:51;;;;;;;14.35;5.80;;;;;;;3.25;100.00;101186.44;4986464;28;20499;-72
2022/02/25 11:16:20;;;;;;;19.95;5.55;;;;;;;3.23;100.00;101186.50;5020827;28;20037;-75
2022/02/25 11:18:48;;;;;;;14.50;5.30;;;;;;;3.29;100.00;101206.91;4997089;28;20038;-75
2022/02/25 11:21:15;;;;;;;16.80;6.00;;;;;;;3.32;100.00;101205.91;4998797;28;20065;-76
2022/02/25 11:23:43;;;;;;;20.35;5.40;;;;;;;3.30;100.00;101205.16;4982260;28;20037;-77